Terminal Aerodrome Forecast
Issued by NWS

Home | Current Version | Previous Version | Text Only | Print | Product List | Glossary On
Versions: 1 2 3 4 5 6 7 8 9 10 11 12 13 14 15 16 17 18 19 20 21 22 23 24
000
FTUS46 KLOX 250500 RRA
TAFPRB
TAF
KPRB 250543Z 2506/2606 31015G25KT P6SM BKN050
     FM250900 33010KT P6SM SCT100
     FM252000 33015G22KT P6SM SCT150
     FM260200 36007KT P6SM SKC=

USA.gov is the U.S. government's official web portal to all federal, state and local government web resources and services.